sensor_id;sensor_type;location;lat;lon;timestamp;temperature;humidity
21762;DHT22;11203;50.870;20.682;2022-11-21T00:00:56;-1.00;99.90
21762;DHT22;11203;50.870;20.682;2022-11-21T00:03:22;-0.90;99.90
21762;DHT22;11203;50.870;20.682;2022-11-21T00:05:49;-1.00;99.90
21762;DHT22;11203;50.870;20.682;2022-11-21T00:08:18;-1.00;99.90
21762;DHT22;11203;50.870;20.682;2022-11-21T00:10:45;-1.00;99.90
21762;DHT22;11203;50.870;20.682;2022-11-21T00:13:17;-0.90;99.90
21762;DHT22;11203;50.870;20.682;2022-11-21T00:15:44;-0.90;99.90
21762;DHT22;11203;50.870;20.682;2022-11-21T00:18:10;-0.90;99.90
21762;DHT22;11203;50.870;20.682;2022-11-21T00:20:38;-0.90;17.70
21762;DHT22;11203;50.870;20.682;2022-11-21T00:23:04;-0.90;99.90
21762;DHT22;11203;50.870;20.682;2022-11-21T00:25:30;-0.90;1.00
21762;DHT22;11203;50.870;20.682;2022-11-21T00:27:57;-0.80;99.90
21762;DHT22;11203;50.870;20.682;2022-11-21T00:30:23;-0.80;99.90
21762;DHT22;11203;50.870;20.682;2022-11-21T00:32:49;-0.80;1.00
21762;DHT22;11203;50.870;20.682;2022-11-21T00:35:15;-0.70;1.00
21762;DHT22;11203;50.870;20.682;2022-11-21T00:37:41;-0.80;99.90
21762;DHT22;11203;50.870;20.682;2022-11-21T00:40:08;-0.80;99.90
21762;DHT22;11203;50.870;20.682;2022-11-21T00:42:34;-0.80;1.00
21762;DHT22;11203;50.870;20.682;2022-11-21T00:45:00;-0.80;1.00
21762;DHT22;11203;50.870;20.682;2022-11-21T00:47:27;-0.70;99.90
21762;DHT22;11203;50.870;20.682;2022-11-21T00:49:52;-0.80;1.00
21762;DHT22;11203;50.870;20.682;2022-11-21T00:52:19;-0.70;1.00
21762;DHT22;11203;50.870;20.682;2022-11-21T00:54:45;-0.70;1.00
21762;DHT22;11203;50.870;20.682;2022-11-21T00:57:11;-0.70;1.00
21762;DHT22;11203;50.870;20.682;2022-11-21T00:59:37;-0.80;1.00
21762;DHT22;11203;50.870;20.682;2022-11-21T01:02:03;-0.70;1.00
21762;DHT22;11203;50.870;20.682;2022-11-21T01:04:31;-0.70;1.00
21762;DHT22;11203;50.870;20.682;2022-11-21T01:06:58;-0.70;1.00
21762;DHT22;11203;50.870;20.682;2022-11-21T01:09:24;-0.60;1.00
21762;DHT22;11203;50.870;20.682;2022-11-21T01:11:50;-0.70;1.00
21762;DHT22;11203;50.870;20.682;2022-11-21T01:14:16;-0.60;1.00
21762;DHT22;11203;50.870;20.682;2022-11-21T01:16:42;-0.70;1.00
21762;DHT22;11203;50.870;20.682;2022-11-21T01:19:08;-0.60;1.00
21762;DHT22;11203;50.870;20.682;2022-11-21T01:21:35;-0.70;1.00
21762;DHT22;11203;50.870;20.682;2022-11-21T01:24:01;-0.80;1.00
21762;DHT22;11203;50.870;20.682;2022-11-21T01:26:29;-0.70;1.00
21762;DHT22;11203;50.870;20.682;2022-11-21T01:28:59;-0.70;99.90
21762;DHT22;11203;50.870;20.682;2022-11-21T01:31:27;-0.70;1.00
21762;DHT22;11203;50.870;20.682;2022-11-21T01:33:56;-0.70;99.90
21762;DHT22;11203;50.870;20.682;2022-11-21T01:36:29;-0.20;99.90
21762;DHT22;11203;50.870;20.682;2022-11-21T01:38:58;-0.80;1.00
21762;DHT22;11203;50.870;20.682;2022-11-21T01:41:28;-0.80;99.90
21762;DHT22;11203;50.870;20.682;2022-11-21T01:44:22;-0.70;61.70
21762;DHT22;11203;50.870;20.682;2022-11-21T01:46:51;-0.70;99.90
21762;DHT22;11203;50.870;20.682;2022-11-21T01:49:26;-0.60;99.90
21762;DHT22;11203;50.870;20.682;2022-11-21T01:52:06;-0.70;99.90
21762;DHT22;11203;50.870;20.682;2022-11-21T01:57:23;-0.60;1.00
21762;DHT22;11203;50.870;20.682;2022-11-21T02:00:12;-0.70;1.00
21762;DHT22;11203;50.870;20.682;2022-11-21T02:02:45;-0.70;1.00
21762;DHT22;11203;50.870;20.682;2022-11-21T02:05:16;-0.70;1.00
21762;DHT22;11203;50.870;20.682;2022-11-21T02:07:47;-0.80;99.90
21762;DHT22;11203;50.870;20.682;2022-11-21T02:10:14;-0.80;1.00
21762;DHT22;11203;50.870;20.682;2022-11-21T02:12:52;-0.80;99.90
21762;DHT22;11203;50.870;20.682;2022-11-21T02:15:22;-0.80;1.00
21762;DHT22;11203;50.870;20.682;2022-11-21T02:17:49;-0.80;1.00
21762;DHT22;11203;50.870;20.682;2022-11-21T02:20:17;-0.90;1.00
21762;DHT22;11203;50.870;20.682;2022-11-21T02:25:40;-0.90;1.00
21762;DHT22;11203;50.870;20.682;2022-11-21T02:28:10;-0.80;1.00
21762;DHT22;11203;50.870;20.682;2022-11-21T02:30:39;-0.80;1.00
21762;DHT22;11203;50.870;20.682;2022-11-21T02:33:08;-0.80;1.00
21762;DHT22;11203;50.870;20.682;2022-11-21T02:35:35;-0.80;1.00
21762;DHT22;11203;50.870;20.682;2022-11-21T02:38:23;-0.80;1.00
21762;DHT22;11203;50.870;20.682;2022-11-21T02:43:37;-0.80;1.00
21762;DHT22;11203;50.870;20.682;2022-11-21T02:46:09;-0.80;99.50
21762;DHT22;11203;50.870;20.682;2022-11-21T02:48:36;-0.90;17.60
21762;DHT22;11203;50.870;20.682;2022-11-21T02:51:03;-0.80;44.40
21762;DHT22;11203;50.870;20.682;2022-11-21T02:53:29;-0.80;64.60
21762;DHT22;11203;50.870;20.682;2022-11-21T02:55:58;-0.90;99.90
21762;DHT22;11203;50.870;20.682;2022-11-21T02:58:24;-0.90;99.90
21762;DHT22;11203;50.870;20.682;2022-11-21T03:00:50;-0.80;1.00
21762;DHT22;11203;50.870;20.682;2022-11-21T03:03:17;-0.90;96.50
21762;DHT22;11203;50.870;20.682;2022-11-21T03:05:43;-0.80;1.00
21762;DHT22;11203;50.870;20.682;2022-11-21T03:08:09;-0.80;1.00
21762;DHT22;11203;50.870;20.682;2022-11-21T03:10:35;-0.80;1.00
21762;DHT22;11203;50.870;20.682;2022-11-21T03:13:02;-0.80;1.00
21762;DHT22;11203;50.870;20.682;2022-11-21T03:15:30;-0.80;1.00
21762;DHT22;11203;50.870;20.682;2022-11-21T03:17:58;-0.70;1.00
21762;DHT22;11203;50.870;20.682;2022-11-21T03:20:28;-0.70;1.00
21762;DHT22;11203;50.870;20.682;2022-11-21T03:22:55;-0.70;1.00
21762;DHT22;11203;50.870;20.682;2022-11-21T03:25:21;-0.60;1.00
21762;DHT22;11203;50.870;20.682;2022-11-21T03:27:51;-0.60;1.00
21762;DHT22;11203;50.870;20.682;2022-11-21T03:30:22;-0.70;33.70
21762;DHT22;11203;50.870;20.682;2022-11-21T03:32:49;-0.70;1.00
21762;DHT22;11203;50.870;20.682;2022-11-21T03:35:16;-0.70;1.00
21762;DHT22;11203;50.870;20.682;2022-11-21T03:37:42;-0.70;1.00
21762;DHT22;11203;50.870;20.682;2022-11-21T03:40:08;-0.60;1.00
21762;DHT22;11203;50.870;20.682;2022-11-21T03:42:35;-0.70;99.90
21762;DHT22;11203;50.870;20.682;2022-11-21T03:45:01;-0.60;99.90
21762;DHT22;11203;50.870;20.682;2022-11-21T03:47:27;-0.60;99.90
21762;DHT22;11203;50.870;20.682;2022-11-21T03:49:53;-0.60;99.90
21762;DHT22;11203;50.870;20.682;2022-11-21T03:52:20;0.00;99.90
21762;DHT22;11203;50.870;20.682;2022-11-21T03:54:46;-0.60;99.90
21762;DHT22;11203;50.870;20.682;2022-11-21T03:57:12;-0.60;1.00
21762;DHT22;11203;50.870;20.682;2022-11-21T03:59:38;-0.30;1.00
21762;DHT22;11203;50.870;20.682;2022-11-21T04:02:04;-0.60;1.00
21762;DHT22;11203;50.870;20.682;2022-11-21T04:04:30;-0.50;1.00
21762;DHT22;11203;50.870;20.682;2022-11-21T04:06:57;-0.50;1.00
21762;DHT22;11203;50.870;20.682;2022-11-21T04:09:23;-0.60;1.00
21762;DHT22;11203;50.870;20.682;2022-11-21T04:11:49;-0.60;1.00
21762;DHT22;11203;50.870;20.682;2022-11-21T04:14:15;-0.50;1.00
21762;DHT22;11203;50.870;20.682;2022-11-21T04:16:41;-0.60;1.00
21762;DHT22;11203;50.870;20.682;2022-11-21T04:19:07;-0.60;1.00
21762;DHT22;11203;50.870;20.682;2022-11-21T04:21:34;-0.70;1.00
21762;DHT22;11203;50.870;20.682;2022-11-21T04:23:59;-0.70;1.00
21762;DHT22;11203;50.870;20.682;2022-11-21T04:26:26;-0.70;1.00
21762;DHT22;11203;50.870;20.682;2022-11-21T04:28:52;-0.80;1.00
21762;DHT22;11203;50.870;20.682;2022-11-21T04:31:18;-0.70;99.90
21762;DHT22;11203;50.870;20.682;2022-11-21T04:33:44;-0.70;1.00
21762;DHT22;11203;50.870;20.682;2022-11-21T04:36:10;-0.60;99.90
21762;DHT22;11203;50.870;20.682;2022-11-21T04:38:36;-0.70;1.00
21762;DHT22;11203;50.870;20.682;2022-11-21T04:41:02;-0.70;1.00
21762;DHT22;11203;50.870;20.682;2022-11-21T04:43:29;-0.80;1.00
21762;DHT22;11203;50.870;20.682;2022-11-21T04:45:55;-0.60;1.00
21762;DHT22;11203;50.870;20.682;2022-11-21T04:48:21;-0.80;1.00
21762;DHT22;11203;50.870;20.682;2022-11-21T04:50:47;-0.80;1.00
21762;DHT22;11203;50.870;20.682;2022-11-21T04:53:13;-0.70;1.00
21762;DHT22;11203;50.870;20.682;2022-11-21T04:55:40;-0.80;3.20
21762;DHT22;11203;50.870;20.682;2022-11-21T04:58:06;-0.80;1.00
21762;DHT22;11203;50.870;20.682;2022-11-21T05:00:32;-0.80;1.00
21762;DHT22;11203;50.870;20.682;2022-11-21T05:03:03;-0.80;1.00
21762;DHT22;11203;50.870;20.682;2022-11-21T05:05:30;-0.80;1.00
21762;DHT22;11203;50.870;20.682;2022-11-21T05:07:56;-0.80;1.00
21762;DHT22;11203;50.870;20.682;2022-11-21T05:10:22;-0.80;1.00
21762;DHT22;11203;50.870;20.682;2022-11-21T05:12:56;-0.80;1.00
21762;DHT22;11203;50.870;20.682;2022-11-21T05:15:41;-0.80;1.00
21762;DHT22;11203;50.870;20.682;2022-11-21T05:18:07;-0.80;1.00
21762;DHT22;11203;50.870;20.682;2022-11-21T05:20:33;-0.80;1.00
21762;DHT22;11203;50.870;20.682;2022-11-21T05:22:59;-0.80;1.00
21762;DHT22;11203;50.870;20.682;2022-11-21T05:25:25;-0.80;1.00
21762;DHT22;11203;50.870;20.682;2022-11-21T05:27:55;-0.90;1.00
21762;DHT22;11203;50.870;20.682;2022-11-21T05:30:21;-0.70;1.00
21762;DHT22;11203;50.870;20.682;2022-11-21T05:32:47;-0.90;1.00
21762;DHT22;11203;50.870;20.682;2022-11-21T05:35:13;-0.80;1.00
21762;DHT22;11203;50.870;20.682;2022-11-21T05:37:40;-0.90;99.90
21762;DHT22;11203;50.870;20.682;2022-11-21T05:40:07;-0.90;1.00
21762;DHT22;11203;50.870;20.682;2022-11-21T05:42:33;-0.90;1.00
21762;DHT22;11203;50.870;20.682;2022-11-21T05:45:22;-0.90;1.00
21762;DHT22;11203;50.870;20.682;2022-11-21T05:47:49;-0.90;1.00
21762;DHT22;11203;50.870;20.682;2022-11-21T05:50:16;-0.90;99.90
21762;DHT22;11203;50.870;20.682;2022-11-21T05:52:42;-1.00;1.00
21762;DHT22;11203;50.870;20.682;2022-11-21T05:55:08;-1.00;1.00
21762;DHT22;11203;50.870;20.682;2022-11-21T05:57:34;-1.00;99.90
21762;DHT22;11203;50.870;20.682;2022-11-21T06:00:00;-0.90;99.90
21762;DHT22;11203;50.870;20.682;2022-11-21T06:02:26;-1.00;99.90
21762;DHT22;11203;50.870;20.682;2022-11-21T06:05:11;-1.00;99.90
21762;DHT22;11203;50.870;20.682;2022-11-21T06:07:37;0.70;1.00
21762;DHT22;11203;50.870;20.682;2022-11-21T06:10:03;0.30;5.70
21762;DHT22;11203;50.870;20.682;2022-11-21T06:12:30;0.60;1.00
21762;DHT22;11203;50.870;20.682;2022-11-21T06:14:56;0.20;1.00
21762;DHT22;11203;50.870;20.682;2022-11-21T06:17:22;-0.10;1.00
21762;DHT22;11203;50.870;20.682;2022-11-21T06:19:48;-0.30;1.00
21762;DHT22;11203;50.870;20.682;2022-11-21T06:22:14;-0.50;1.00
21762;DHT22;11203;50.870;20.682;2022-11-21T06:24:40;-0.60;1.00
21762;DHT22;11203;50.870;20.682;2022-11-21T06:27:07;-0.80;1.00
21762;DHT22;11203;50.870;20.682;2022-11-21T06:29:33;-0.80;99.90
21762;DHT22;11203;50.870;20.682;2022-11-21T06:31:59;-0.90;99.90
21762;DHT22;11203;50.870;20.682;2022-11-21T06:34:26;-0.90;99.90
21762;DHT22;11203;50.870;20.682;2022-11-21T06:36:51;-1.10;99.90
21762;DHT22;11203;50.870;20.682;2022-11-21T06:39:18;-1.20;1.00
21762;DHT22;11203;50.870;20.682;2022-11-21T06:41:44;-1.30;1.00
21762;DHT22;11203;50.870;20.682;2022-11-21T06:44:18;-1.30;1.00
21762;DHT22;11203;50.870;20.682;2022-11-21T06:46:45;-1.50;1.00
21762;DHT22;11203;50.870;20.682;2022-11-21T06:49:11;-1.50;1.00
21762;DHT22;11203;50.870;20.682;2022-11-21T06:51:37;-1.60;1.00
21762;DHT22;11203;50.870;20.682;2022-11-21T06:54:03;-1.60;99.90
21762;DHT22;11203;50.870;20.682;2022-11-21T06:56:30;-1.60;99.90
21762;DHT22;11203;50.870;20.682;2022-11-21T06:58:57;-1.50;99.90
21762;DHT22;11203;50.870;20.682;2022-11-21T07:01:24;-1.50;99.90
21762;DHT22;11203;50.870;20.682;2022-11-21T07:03:51;-1.50;99.90
21762;DHT22;11203;50.870;20.682;2022-11-21T07:06:18;-1.60;99.90
21762;DHT22;11203;50.870;20.682;2022-11-21T07:08:44;-1.50;99.90
21762;DHT22;11203;50.870;20.682;2022-11-21T07:11:12;-1.40;99.90
21762;DHT22;11203;50.870;20.682;2022-11-21T07:13:39;-1.40;99.90
21762;DHT22;11203;50.870;20.682;2022-11-21T07:16:09;-1.40;99.90
21762;DHT22;11203;50.870;20.682;2022-11-21T07:18:39;-1.30;99.90
21762;DHT22;11203;50.870;20.682;2022-11-21T07:21:06;-1.30;99.90
21762;DHT22;11203;50.870;20.682;2022-11-21T07:23:34;-1.20;99.90
21762;DHT22;11203;50.870;20.682;2022-11-21T07:26:01;-1.20;99.90
21762;DHT22;11203;50.870;20.682;2022-11-21T07:28:32;-1.20;99.90
21762;DHT22;11203;50.870;20.682;2022-11-21T07:31:00;-1.20;99.90
21762;DHT22;11203;50.870;20.682;2022-11-21T07:33:28;-1.10;99.90
21762;DHT22;11203;50.870;20.682;2022-11-21T07:35:55;-1.20;99.90
21762;DHT22;11203;50.870;20.682;2022-11-21T07:38:25;-1.10;99.90
21762;DHT22;11203;50.870;20.682;2022-11-21T07:40:52;-1.10;99.90
21762;DHT22;11203;50.870;20.682;2022-11-21T07:43:18;-1.10;99.90
21762;DHT22;11203;50.870;20.682;2022-11-21T07:45:44;-1.00;99.90
21762;DHT22;11203;50.870;20.682;2022-11-21T07:48:10;-0.90;99.90
21762;DHT22;11203;50.870;20.682;2022-11-21T07:50:37;-0.90;99.90
21762;DHT22;11203;50.870;20.682;2022-11-21T07:53:05;-0.90;99.90
21762;DHT22;11203;50.870;20.682;2022-11-21T07:55:32;-0.90;99.90
21762;DHT22;11203;50.870;20.682;2022-11-21T08:00:35;-0.80;99.90
21762;DHT22;11203;50.870;20.682;2022-11-21T08:03:03;-0.70;99.90
21762;DHT22;11203;50.870;20.682;2022-11-21T08:05:35;0.60;99.90
21762;DHT22;11203;50.870;20.682;2022-11-21T08:08:02;-0.60;83.80
21762;DHT22;11203;50.870;20.682;2022-11-21T08:10:30;-0.60;37.10
21762;DHT22;11203;50.870;20.682;2022-11-21T08:12:56;-0.50;1.00
21762;DHT22;11203;50.870;20.682;2022-11-21T08:15:22;-0.50;1.00
21762;DHT22;11203;50.870;20.682;2022-11-21T08:17:48;-0.30;1.00
21762;DHT22;11203;50.870;20.682;2022-11-21T08:20:14;-0.30;99.90
21762;DHT22;11203;50.870;20.682;2022-11-21T08:22:41;-0.20;1.00
21762;DHT22;11203;50.870;20.682;2022-11-21T08:25:08;-0.30;1.00
21762;DHT22;11203;50.870;20.682;2022-11-21T08:27:37;-0.10;1.00
21762;DHT22;11203;50.870;20.682;2022-11-21T08:30:07;0.10;1.00
21762;DHT22;11203;50.870;20.682;2022-11-21T08:32:35;0.00;1.00
21762;DHT22;11203;50.870;20.682;2022-11-21T08:35:01;0.10;1.00
21762;DHT22;11203;50.870;20.682;2022-11-21T08:37:28;0.20;1.00
21762;DHT22;11203;50.870;20.682;2022-11-21T08:39:55;0.40;1.00
21762;DHT22;11203;50.870;20.682;2022-11-21T08:42:24;0.50;1.00
21762;DHT22;11203;50.870;20.682;2022-11-21T08:44:50;0.50;99.90
21762;DHT22;11203;50.870;20.682;2022-11-21T08:47:16;0.50;99.90
21762;DHT22;11203;50.870;20.682;2022-11-21T08:49:42;0.70;99.90
21762;DHT22;11203;50.870;20.682;2022-11-21T08:52:09;0.70;99.90
21762;DHT22;11203;50.870;20.682;2022-11-21T08:54:35;0.80;1.00
21762;DHT22;11203;50.870;20.682;2022-11-21T08:57:01;0.90;1.00
21762;DHT22;11203;50.870;20.682;2022-11-21T08:59:27;0.90;1.00
21762;DHT22;11203;50.870;20.682;2022-11-21T09:01:53;1.00;1.00
21762;DHT22;11203;50.870;20.682;2022-11-21T09:04:19;1.00;99.90
21762;DHT22;11203;50.870;20.682;2022-11-21T09:06:45;1.10;99.90
21762;DHT22;11203;50.870;20.682;2022-11-21T09:09:11;1.20;1.00
21762;DHT22;11203;50.870;20.682;2022-11-21T09:11:37;1.30;1.00
21762;DHT22;11203;50.870;20.682;2022-11-21T09:14:03;1.30;1.00
21762;DHT22;11203;50.870;20.682;2022-11-21T09:16:48;1.30;1.00
21762;DHT22;11203;50.870;20.682;2022-11-21T09:19:32;1.40;1.00
21762;DHT22;11203;50.870;20.682;2022-11-21T09:21:59;1.40;1.00
21762;DHT22;11203;50.870;20.682;2022-11-21T09:24:25;1.50;1.00
21762;DHT22;11203;50.870;20.682;2022-11-21T09:26:51;1.60;1.00
21762;DHT22;11203;50.870;20.682;2022-11-21T09:29:17;1.60;1.00
21762;DHT22;11203;50.870;20.682;2022-11-21T09:31:43;1.60;1.00
21762;DHT22;11203;50.870;20.682;2022-11-21T09:34:10;1.60;1.00
21762;DHT22;11203;50.870;20.682;2022-11-21T09:36:36;1.60;1.00
21762;DHT22;11203;50.870;20.682;2022-11-21T09:39:03;1.70;1.00
21762;DHT22;11203;50.870;20.682;2022-11-21T09:47:29;2.00;1.00
21762;DHT22;11203;50.870;20.682;2022-11-21T09:50:03;2.10;1.00
21762;DHT22;11203;50.870;20.682;2022-11-21T09:53:12;2.20;1.00
21762;DHT22;11203;50.870;20.682;2022-11-21T09:58:44;2.30;1.00
21762;DHT22;11203;50.870;20.682;2022-11-21T10:01:14;2.30;1.00
21762;DHT22;11203;50.870;20.682;2022-11-21T10:03:49;2.30;1.00
21762;DHT22;11203;50.870;20.682;2022-11-21T10:12:22;2.40;1.00
21762;DHT22;11203;50.870;20.682;2022-11-21T10:26:53;2.50;26.90
21762;DHT22;11203;50.870;20.682;2022-11-21T10:29:49;2.60;49.60
21762;DHT22;11203;50.870;20.682;2022-11-21T10:32:21;2.80;25.00
21762;DHT22;11203;50.870;20.682;2022-11-21T10:34:50;2.70;1.00
21762;DHT22;11203;50.870;20.682;2022-11-21T10:37:29;2.70;15.80
21762;DHT22;11203;50.870;20.682;2022-11-21T10:40:13;2.60;99.90
21762;DHT22;11203;50.870;20.682;2022-11-21T10:42:52;2.70;99.90
21762;DHT22;11203;50.870;20.682;2022-11-21T10:45:50;2.70;95.90
21762;DHT22;11203;50.870;20.682;2022-11-21T10:48:17;2.70;99.50
21762;DHT22;11203;50.870;20.682;2022-11-21T10:51:04;2.80;99.90
21762;DHT22;11203;50.870;20.682;2022-11-21T10:54:21;2.80;99.90
21762;DHT22;11203;50.870;20.682;2022-11-21T10:57:19;2.90;78.70
21762;DHT22;11203;50.870;20.682;2022-11-21T11:02:30;3.10;99.90
21762;DHT22;11203;50.870;20.682;2022-11-21T11:07:41;3.00;77.70
21762;DHT22;11203;50.870;20.682;2022-11-21T11:10:23;3.00;92.80
21762;DHT22;11203;50.870;20.682;2022-11-21T11:12:50;3.00;99.90
21762;DHT22;11203;50.870;20.682;2022-11-21T11:15:37;3.00;99.90
21762;DHT22;11203;50.870;20.682;2022-11-21T11:18:19;3.00;99.90
21762;DHT22;11203;50.870;20.682;2022-11-21T11:20:47;3.10;99.90
21762;DHT22;11203;50.870;20.682;2022-11-21T11:25:51;3.10;99.90
21762;DHT22;11203;50.870;20.682;2022-11-21T11:28:19;3.20;99.90
21762;DHT22;11203;50.870;20.682;2022-11-21T11:30:50;3.20;99.90
21762;DHT22;11203;50.870;20.682;2022-11-21T11:33:31;3.30;99.90
21762;DHT22;11203;50.870;20.682;2022-11-21T11:36:09;3.30;99.90
21762;DHT22;11203;50.870;20.682;2022-11-21T11:38:38;3.40;99.90
21762;DHT22;11203;50.870;20.682;2022-11-21T11:45:06;3.40;99.90
21762;DHT22;11203;50.870;20.682;2022-11-21T11:47:59;3.40;99.90
21762;DHT22;11203;50.870;20.682;2022-11-21T11:50:38;3.50;99.90
21762;DHT22;11203;50.870;20.682;2022-11-21T11:53:20;3.40;99.90
21762;DHT22;11203;50.870;20.682;2022-11-21T11:55:58;3.40;99.90
21762;DHT22;11203;50.870;20.682;2022-11-21T12:07:05;3.40;99.90
21762;DHT22;11203;50.870;20.682;2022-11-21T12:12:36;3.40;99.60
21762;DHT22;11203;50.870;20.682;2022-11-21T12:15:11;3.50;99.90
21762;DHT22;11203;50.870;20.682;2022-11-21T12:23:26;3.40;99.90
21762;DHT22;11203;50.870;20.682;2022-11-21T12:26:12;3.40;99.90
21762;DHT22;11203;50.870;20.682;2022-11-21T12:50:15;3.40;99.90
21762;DHT22;11203;50.870;20.682;2022-11-21T12:53:32;3.30;99.90
21762;DHT22;11203;50.870;20.682;2022-11-21T12:59:12;3.30;99.90
21762;DHT22;11203;50.870;20.682;2022-11-21T13:04:35;3.30;99.90
21762;DHT22;11203;50.870;20.682;2022-11-21T13:07:03;3.30;99.90
21762;DHT22;11203;50.870;20.682;2022-11-21T13:09:37;3.30;99.90
21762;DHT22;11203;50.870;20.682;2022-11-21T13:12:21;3.20;99.90
21762;DHT22;11203;50.870;20.682;2022-11-21T13:15:20;3.30;99.90
21762;DHT22;11203;50.870;20.682;2022-11-21T13:17:52;3.30;99.90
21762;DHT22;11203;50.870;20.682;2022-11-21T13:22:54;3.30;99.90
21762;DHT22;11203;50.870;20.682;2022-11-21T13:25:38;3.30;99.90
21762;DHT22;11203;50.870;20.682;2022-11-21T13:30:54;3.40;99.90
21762;DHT22;11203;50.870;20.682;2022-11-21T14:06:47;3.10;99.90
21762;DHT22;11203;50.870;20.682;2022-11-21T14:11:52;3.10;99.90
21762;DHT22;11203;50.870;20.682;2022-11-21T14:14:39;3.10;99.90
21762;DHT22;11203;50.870;20.682;2022-11-21T14:20:27;2.90;99.90
21762;DHT22;11203;50.870;20.682;2022-11-21T14:23:13;2.90;99.90
21762;DHT22;11203;50.870;20.682;2022-11-21T14:25:47;2.90;99.90
21762;DHT22;11203;50.870;20.682;2022-11-21T14:28:26;2.90;99.90
21762;DHT22;11203;50.870;20.682;2022-11-21T14:31:03;2.90;99.90
21762;DHT22;11203;50.870;20.682;2022-11-21T14:36:22;2.80;99.90
21762;DHT22;11203;50.870;20.682;2022-11-21T14:38:55;2.80;99.90
21762;DHT22;11203;50.870;20.682;2022-11-21T14:44:00;2.70;99.90
21762;DHT22;11203;50.870;20.682;2022-11-21T14:46:30;2.70;99.90
21762;DHT22;11203;50.870;20.682;2022-11-21T14:51:44;2.60;99.90
21762;DHT22;11203;50.870;20.682;2022-11-21T14:54:29;2.60;99.90
21762;DHT22;11203;50.870;20.682;2022-11-21T14:57:05;2.60;99.90
21762;DHT22;11203;50.870;20.682;2022-11-21T14:59:38;2.50;99.90
21762;DHT22;11203;50.870;20.682;2022-11-21T15:02:14;2.50;99.90
21762;DHT22;11203;50.870;20.682;2022-11-21T15:04:48;2.50;99.90
21762;DHT22;11203;50.870;20.682;2022-11-21T15:07:26;2.50;99.90
21762;DHT22;11203;50.870;20.682;2022-11-21T15:09:53;2.60;99.90
21762;DHT22;11203;50.870;20.682;2022-11-21T15:15:33;2.40;99.90
21762;DHT22;11203;50.870;20.682;2022-11-21T15:18:03;2.40;99.90
21762;DHT22;11203;50.870;20.682;2022-11-21T15:20:31;2.40;99.90
21762;DHT22;11203;50.870;20.682;2022-11-21T15:23:01;2.40;99.90
21762;DHT22;11203;50.870;20.682;2022-11-21T15:25:42;2.40;99.90
21762;DHT22;11203;50.870;20.682;2022-11-21T15:28:16;2.40;99.90
21762;DHT22;11203;50.870;20.682;2022-11-21T15:30:43;2.40;99.90
21762;DHT22;11203;50.870;20.682;2022-11-21T15:33:17;2.40;99.90
21762;DHT22;11203;50.870;20.682;2022-11-21T15:35:56;2.40;99.90
21762;DHT22;11203;50.870;20.682;2022-11-21T15:46:16;2.40;99.90
21762;DHT22;11203;50.870;20.682;2022-11-21T15:49:09;2.40;99.90
21762;DHT22;11203;50.870;20.682;2022-11-21T15:54:09;2.50;99.90
21762;DHT22;11203;50.870;20.682;2022-11-21T15:56:37;2.40;99.90
21762;DHT22;11203;50.870;20.682;2022-11-21T15:59:03;2.40;99.90
21762;DHT22;11203;50.870;20.682;2022-11-21T16:01:29;2.40;99.90
21762;DHT22;11203;50.870;20.682;2022-11-21T16:04:02;2.40;95.20
21762;DHT22;11203;50.870;20.682;2022-11-21T16:06:30;2.40;63.10
21762;DHT22;11203;50.870;20.682;2022-11-21T16:08:57;2.30;29.90
21762;DHT22;11203;50.870;20.682;2022-11-21T16:11:27;2.30;82.80
21762;DHT22;11203;50.870;20.682;2022-11-21T16:14:00;2.30;93.50
21762;DHT22;11203;50.870;20.682;2022-11-21T16:16:31;2.30;1.00
21762;DHT22;11203;50.870;20.682;2022-11-21T16:18:59;2.30;1.00
21762;DHT22;11203;50.870;20.682;2022-11-21T16:21:25;2.30;1.00
21762;DHT22;11203;50.870;20.682;2022-11-21T16:23:51;2.30;1.00
21762;DHT22;11203;50.870;20.682;2022-11-21T16:26:18;2.20;1.00
21762;DHT22;11203;50.870;20.682;2022-11-21T16:28:44;2.20;1.00
21762;DHT22;11203;50.870;20.682;2022-11-21T16:31:18;2.00;1.00
21762;DHT22;11203;50.870;20.682;2022-11-21T16:33:45;2.00;1.00
21762;DHT22;11203;50.870;20.682;2022-11-21T16:36:12;1.90;1.00
21762;DHT22;11203;50.870;20.682;2022-11-21T16:38:44;1.90;1.00
21762;DHT22;11203;50.870;20.682;2022-11-21T16:41:10;1.80;99.90
21762;DHT22;11203;50.870;20.682;2022-11-21T16:43:36;1.80;99.90
21762;DHT22;11203;50.870;20.682;2022-11-21T16:46:07;1.80;99.90
21762;DHT22;11203;50.870;20.682;2022-11-21T16:48:34;1.70;1.00
21762;DHT22;11203;50.870;20.682;2022-11-21T16:51:16;1.70;1.00
21762;DHT22;11203;50.870;20.682;2022-11-21T16:53:44;1.70;1.00
21762;DHT22;11203;50.870;20.682;2022-11-21T16:56:12;1.60;1.00
21762;DHT22;11203;50.870;20.682;2022-11-21T16:58:39;1.60;1.00
21762;DHT22;11203;50.870;20.682;2022-11-21T17:01:19;1.50;1.00
21762;DHT22;11203;50.870;20.682;2022-11-21T17:03:49;1.50;1.00
21762;DHT22;11203;50.870;20.682;2022-11-21T17:06:18;1.50;1.00
21762;DHT22;11203;50.870;20.682;2022-11-21T17:08:48;1.50;1.00
21762;DHT22;11203;50.870;20.682;2022-11-21T17:11:25;1.50;1.00
21762;DHT22;11203;50.870;20.682;2022-11-21T17:14:02;1.40;1.00
21762;DHT22;11203;50.870;20.682;2022-11-21T17:16:30;1.40;1.00
21762;DHT22;11203;50.870;20.682;2022-11-21T17:18:58;1.40;1.00
21762;DHT22;11203;50.870;20.682;2022-11-21T17:21:27;1.40;1.00
21762;DHT22;11203;50.870;20.682;2022-11-21T17:23:53;1.50;1.00
21762;DHT22;11203;50.870;20.682;2022-11-21T17:26:22;1.40;1.00
21762;DHT22;11203;50.870;20.682;2022-11-21T17:31:25;1.40;1.00
21762;DHT22;11203;50.870;20.682;2022-11-21T17:33:52;1.30;1.00
21762;DHT22;11203;50.870;20.682;2022-11-21T17:36:22;1.40;1.00
21762;DHT22;11203;50.870;20.682;2022-11-21T17:38:50;1.30;1.00
21762;DHT22;11203;50.870;20.682;2022-11-21T17:41:18;1.30;1.00
21762;DHT22;11203;50.870;20.682;2022-11-21T17:43:47;1.30;1.00
21762;DHT22;11203;50.870;20.682;2022-11-21T17:46:15;1.30;1.00
21762;DHT22;11203;50.870;20.682;2022-11-21T17:48:44;1.30;1.00
21762;DHT22;11203;50.870;20.682;2022-11-21T17:51:17;1.30;1.00
21762;DHT22;11203;50.870;20.682;2022-11-21T17:53:46;1.30;1.00
21762;DHT22;11203;50.870;20.682;2022-11-21T17:56:21;1.30;1.00
21762;DHT22;11203;50.870;20.682;2022-11-21T17:58:50;1.30;1.00
21762;DHT22;11203;50.870;20.682;2022-11-21T18:01:17;1.30;1.00
21762;DHT22;11203;50.870;20.682;2022-11-21T18:03:44;1.20;1.00
21762;DHT22;11203;50.870;20.682;2022-11-21T18:06:13;1.20;1.00
21762;DHT22;11203;50.870;20.682;2022-11-21T18:08:45;1.20;1.00
21762;DHT22;11203;50.870;20.682;2022-11-21T18:11:14;1.20;1.00
21762;DHT22;11203;50.870;20.682;2022-11-21T18:13:43;1.30;1.00
21762;DHT22;11203;50.870;20.682;2022-11-21T18:16:12;1.20;1.00
21762;DHT22;11203;50.870;20.682;2022-11-21T18:18:39;1.30;1.00
21762;DHT22;11203;50.870;20.682;2022-11-21T18:21:11;1.20;1.00
21762;DHT22;11203;50.870;20.682;2022-11-21T18:23:42;1.30;1.00
21762;DHT22;11203;50.870;20.682;2022-11-21T18:26:15;1.30;1.00
21762;DHT22;11203;50.870;20.682;2022-11-21T18:28:42;1.20;1.00
21762;DHT22;11203;50.870;20.682;2022-11-21T18:31:14;1.20;1.00